Doagh, United Kingdom
Current Conditions -  °F | °C
As of 12:20 PM on Friday 24 Oct 2014 (Local Time) from EGAA Reporting Station
Scattered Clouds Scattered Clouds  
Wind Chill: 10°   Ceiling: Unl
Heat Index: 10°   Visibility: 6mi
Dew Point:   Wind: 12mph
Humidity: 82%   Direction: 220°SW
Pressure: 29.8"   Gusts: NA
Location:  54.75°N, 6.08°W
Report Text: EGAA 241120Z 22010KT 9999 FEW010 SCT035 10/07 Q1009
Loading
Personal Weather Stations






























Interactive Weather Map
Tropical Storm Tracking
New forecast layout! Learn more

10-Day Weather Forecast

Advertisements
Track Severe Weather on mobile